createdAt,value
2023-10-29T00:02:14.226Z,98.60
2023-10-29T00:04:41.566Z,98.59
2023-10-29T00:07:09.171Z,99.88
2023-10-29T00:09:36.393Z,99.87
2023-10-29T00:12:03.836Z,99.65
2023-10-29T00:14:32.321Z,99.68
2023-10-29T00:16:59.960Z,100.00
2023-10-29T00:19:27.164Z,100.00
2023-10-29T00:21:54.321Z,100.00
2023-10-29T00:24:23.383Z,100.00
2023-10-29T00:26:51.473Z,100.00
2023-10-29T00:29:19.049Z,100.00
2023-10-29T00:31:46.346Z,100.00
2023-10-29T00:34:13.859Z,100.00
2023-10-29T00:36:41.172Z,100.00
2023-10-29T00:39:08.807Z,100.00
2023-10-29T00:41:36.099Z,100.00
2023-10-29T00:44:03.756Z,100.00
2023-10-29T00:46:31.709Z,100.00
2023-10-29T00:48:59.816Z,100.00
2023-10-29T00:51:27.502Z,100.00
2023-10-29T00:53:55.064Z,100.00
2023-10-29T00:56:23.018Z,100.00
2023-10-29T00:58:52.626Z,100.00
2023-10-29T01:01:20.643Z,100.00
2023-10-29T01:03:48.161Z,100.00
2023-10-29T01:06:16.702Z,100.00
2023-10-29T01:08:44.264Z,100.00
2023-10-29T01:11:11.544Z,100.00
2023-10-29T01:13:40.033Z,99.38
2023-10-29T01:16:07.938Z,98.87
2023-10-29T01:18:35.787Z,100.00
2023-10-29T01:21:03.438Z,98.81
2023-10-29T01:23:31.975Z,99.15
2023-10-29T01:25:59.464Z,99.52
2023-10-29T01:28:27.031Z,100.00
2023-10-29T01:30:54.482Z,100.00
2023-10-29T01:33:21.881Z,100.00
2023-10-29T01:35:49.630Z,100.00
2023-10-29T01:38:19.570Z,99.94
2023-10-29T01:40:46.788Z,99.41
2023-10-29T01:43:14.132Z,99.48
2023-10-29T01:45:42.024Z,99.14
2023-10-29T01:48:09.306Z,98.64
2023-10-29T01:50:37.334Z,97.67
2023-10-29T01:53:04.690Z,97.27
2023-10-29T01:55:36.253Z,96.37
2023-10-29T01:58:03.994Z,95.54
2023-10-29T02:00:31.544Z,94.43
2023-10-29T02:02:58.859Z,94.07
2023-10-29T02:05:26.150Z,94.88
2023-10-29T02:07:53.414Z,95.12
2023-10-29T02:10:21.139Z,94.91
2023-10-29T02:12:50.012Z,94.12
2023-10-29T02:15:17.184Z,92.99
2023-10-29T02:17:44.471Z,93.10
2023-10-29T02:20:13.174Z,90.82
2023-10-29T02:22:41.669Z,91.33
2023-10-29T02:25:09.316Z,91.76
2023-10-29T02:27:36.533Z,91.04
2023-10-29T02:30:04.171Z,89.83
2023-10-29T02:32:31.457Z,89.66
2023-10-29T02:34:58.718Z,88.63
2023-10-29T02:37:25.961Z,89.77
2023-10-29T02:39:53.240Z,91.28
2023-10-29T02:42:20.911Z,91.85
2023-10-29T02:44:49.092Z,91.37
2023-10-29T02:47:16.508Z,92.55
2023-10-29T02:49:43.729Z,92.92
2023-10-29T02:52:11.752Z,93.10
2023-10-29T02:54:39.326Z,91.74
2023-10-29T02:57:06.537Z,91.62
2023-10-29T02:59:34.005Z,92.80
2023-10-29T03:02:02.068Z,92.77
2023-10-29T03:04:29.318Z,92.00
2023-10-29T03:06:57.899Z,90.91
2023-10-29T03:09:25.203Z,89.79
2023-10-29T03:11:52.505Z,90.22
2023-10-29T03:14:19.735Z,90.05
2023-10-29T03:16:47.120Z,89.68
2023-10-29T03:19:14.389Z,87.73
2023-10-29T03:21:41.650Z,87.80
2023-10-29T03:24:09.102Z,87.08
2023-10-29T03:26:36.489Z,87.25
2023-10-29T03:29:03.984Z,87.54
2023-10-29T03:31:31.294Z,86.79
2023-10-29T03:33:58.721Z,85.92
2023-10-29T03:36:25.884Z,85.64
2023-10-29T03:38:53.136Z,85.77
2023-10-29T03:41:23.770Z,85.40
2023-10-29T03:43:51.071Z,84.85
2023-10-29T03:46:19.607Z,85.32
2023-10-29T03:48:47.241Z,84.85
2023-10-29T03:51:15.817Z,84.23
2023-10-29T03:53:43.100Z,84.84
2023-10-29T03:56:10.476Z,84.62
2023-10-29T03:58:37.744Z,85.25
2023-10-29T04:01:05.123Z,85.67
2023-10-29T04:03:32.603Z,85.84
2023-10-29T04:06:00.067Z,85.57
2023-10-29T04:08:27.363Z,85.89
2023-10-29T04:10:54.563Z,84.78
2023-10-29T04:13:22.043Z,84.12
2023-10-29T04:15:49.342Z,84.76
2023-10-29T04:18:17.767Z,84.24
2023-10-29T04:20:45.220Z,84.64
2023-10-29T04:23:12.448Z,83.16
2023-10-29T04:25:40.079Z,83.50
2023-10-29T04:28:07.292Z,82.31
2023-10-29T04:30:34.598Z,84.89
2023-10-29T04:33:02.090Z,85.90
2023-10-29T04:35:30.298Z,85.89
2023-10-29T04:37:57.595Z,86.43
2023-10-29T04:40:25.025Z,87.07
2023-10-29T04:42:52.246Z,87.10
2023-10-29T04:45:19.469Z,87.34
2023-10-29T04:47:46.749Z,87.28
2023-10-29T04:50:13.974Z,87.99
2023-10-29T04:52:41.256Z,89.14
2023-10-29T04:55:10.061Z,88.68
2023-10-29T04:57:37.708Z,88.40
2023-10-29T05:00:06.333Z,89.73
2023-10-29T05:02:34.198Z,91.00
2023-10-29T05:05:01.588Z,90.52
2023-10-29T05:07:29.054Z,89.84
2023-10-29T05:09:56.347Z,90.00
2023-10-29T05:12:23.538Z,90.16
2023-10-29T05:14:53.966Z,90.37
2023-10-29T05:17:21.220Z,90.43
2023-10-29T05:19:48.451Z,91.04
2023-10-29T05:22:15.869Z,91.19
2023-10-29T05:24:44.242Z,90.86
2023-10-29T05:27:11.472Z,91.22
2023-10-29T05:29:38.809Z,91.46
2023-10-29T05:32:06.906Z,90.88
2023-10-29T05:34:34.786Z,91.36
2023-10-29T05:37:02.030Z,92.38
2023-10-29T05:39:29.420Z,92.91
2023-10-29T05:41:56.763Z,93.87
2023-10-29T05:44:24.078Z,94.18
2023-10-29T05:46:51.321Z,94.45
2023-10-29T05:49:18.610Z,95.02
2023-10-29T05:51:45.897Z,95.77
2023-10-29T05:54:13.135Z,96.53
2023-10-29T05:56:40.455Z,97.54
2023-10-29T05:59:07.928Z,97.88
2023-10-29T06:01:35.126Z,98.10
2023-10-29T06:04:02.570Z,98.58
2023-10-29T06:06:30.003Z,98.43
2023-10-29T06:09:00.307Z,97.97
2023-10-29T06:11:31.689Z,98.85
2023-10-29T06:13:59.063Z,98.62
2023-10-29T06:16:26.306Z,99.27
2023-10-29T06:18:53.673Z,100.00
2023-10-29T06:21:21.977Z,100.00
2023-10-29T06:23:50.194Z,100.00
2023-10-29T06:26:17.511Z,100.00
2023-10-29T06:28:44.853Z,100.00
2023-10-29T06:31:12.135Z,100.00
2023-10-29T06:33:40.634Z,100.00
2023-10-29T06:36:08.569Z,100.00
2023-10-29T06:38:36.036Z,100.00
2023-10-29T06:41:03.802Z,100.00
2023-10-29T06:43:31.177Z,100.00
2023-10-29T06:45:58.442Z,100.00
2023-10-29T06:48:25.922Z,100.00
2023-10-29T06:50:53.298Z,100.00
2023-10-29T06:53:20.756Z,100.00
2023-10-29T06:55:48.246Z,100.00
2023-10-29T06:58:15.880Z,100.00
2023-10-29T07:00:43.196Z,100.00
2023-10-29T07:03:10.652Z,100.00
2023-10-29T07:05:38.019Z,100.00
2023-10-29T07:08:05.335Z,100.00
2023-10-29T07:10:32.950Z,100.00
2023-10-29T07:13:00.247Z,100.00
2023-10-29T07:15:27.650Z,100.00
2023-10-29T07:17:54.958Z,100.00
2023-10-29T07:20:22.357Z,100.00
2023-10-29T07:22:49.579Z,100.00
2023-10-29T07:25:16.747Z,100.00
2023-10-29T07:27:43.889Z,100.00
2023-10-29T07:30:11.532Z,100.00
2023-10-29T07:32:39.040Z,100.00
2023-10-29T07:35:06.547Z,100.00
2023-10-29T07:37:34.744Z,100.00
2023-10-29T07:40:01.978Z,100.00
2023-10-29T07:42:29.245Z,100.00
2023-10-29T07:44:56.596Z,100.00
2023-10-29T07:47:23.882Z,100.00
2023-10-29T07:49:51.155Z,100.00
2023-10-29T07:52:18.472Z,100.00
2023-10-29T07:54:45.866Z,100.00
2023-10-29T07:57:13.174Z,100.00
2023-10-29T07:59:40.405Z,100.00
2023-10-29T08:02:07.676Z,100.00
2023-10-29T08:04:34.911Z,100.00
2023-10-29T08:07:02.693Z,100.00
2023-10-29T08:09:29.969Z,100.00
2023-10-29T08:11:57.264Z,100.00
2023-10-29T08:14:24.546Z,100.00
2023-10-29T08:16:52.010Z,100.00
2023-10-29T08:19:19.283Z,100.00
2023-10-29T08:21:46.469Z,100.00
2023-10-29T08:24:13.760Z,100.00
2023-10-29T08:26:40.994Z,100.00
2023-10-29T08:29:08.615Z,100.00
2023-10-29T08:31:36.963Z,100.00
2023-10-29T08:34:04.911Z,100.00
2023-10-29T08:36:32.417Z,100.00
2023-10-29T08:38:59.930Z,100.00
2023-10-29T08:41:27.185Z,100.00
2023-10-29T08:43:54.562Z,100.00
2023-10-29T08:46:22.183Z,100.00
2023-10-29T08:48:49.678Z,100.00
2023-10-29T08:51:17.156Z,100.00
2023-10-29T08:53:44.446Z,100.00
2023-10-29T08:56:11.659Z,100.00
2023-10-29T08:58:39.152Z,100.00
2023-10-29T09:01:10.021Z,100.00
2023-10-29T09:03:37.671Z,100.00
2023-10-29T09:06:05.921Z,100.00
2023-10-29T09:08:37.877Z,100.00
2023-10-29T09:11:05.227Z,100.00
2023-10-29T09:13:32.699Z,100.00
2023-10-29T09:16:00.871Z,100.00
2023-10-29T09:18:28.534Z,100.00
2023-10-29T09:20:56.320Z,100.00
2023-10-29T09:23:24.307Z,100.00
2023-10-29T09:25:51.623Z,100.00
2023-10-29T09:28:18.915Z,100.00
2023-10-29T09:30:46.102Z,100.00
2023-10-29T09:33:14.408Z,100.00
2023-10-29T09:35:42.654Z,100.00
2023-10-29T09:38:10.026Z,100.00
2023-10-29T09:40:37.320Z,100.00
2023-10-29T09:43:05.733Z,100.00
2023-10-29T09:45:36.305Z,100.00
2023-10-29T09:48:06.065Z,100.00
2023-10-29T09:50:35.895Z,100.00
2023-10-29T09:53:04.182Z,100.00
2023-10-29T09:55:33.434Z,100.00
2023-10-29T09:58:00.781Z,100.00
2023-10-29T10:00:28.572Z,100.00
2023-10-29T10:02:59.174Z,100.00
2023-10-29T10:05:29.189Z,100.00
2023-10-29T10:07:56.829Z,100.00
2023-10-29T10:10:43.909Z,100.00
2023-10-29T10:13:11.928Z,100.00
2023-10-29T10:15:39.364Z,100.00
2023-10-29T10:18:07.364Z,100.00
2023-10-29T10:20:37.285Z,99.24
2023-10-29T10:23:06.988Z,97.77
2023-10-29T10:25:35.525Z,96.65
2023-10-29T10:28:04.705Z,96.11
2023-10-29T10:30:39.536Z,95.16
2023-10-29T10:33:17.101Z,95.72
2023-10-29T10:35:46.763Z,94.73
2023-10-29T10:38:15.860Z,93.42
2023-10-29T10:40:43.369Z,93.78
2023-10-29T10:43:10.714Z,93.28
2023-10-29T10:45:38.448Z,92.15
2023-10-29T10:48:07.027Z,92.31
2023-10-29T10:50:35.726Z,90.42
2023-10-29T10:53:04.260Z,89.26
2023-10-29T10:55:50.785Z,88.13
2023-10-29T10:58:19.553Z,87.65
2023-10-29T11:00:50.492Z,86.39
2023-10-29T11:03:31.676Z,86.78
2023-10-29T11:06:00.560Z,87.88
2023-10-29T11:08:27.919Z,86.86
2023-10-29T11:10:55.430Z,85.92
2023-10-29T11:13:23.245Z,84.91
2023-10-29T11:15:50.959Z,85.22
2023-10-29T11:18:33.790Z,84.04
2023-10-29T11:21:06.034Z,82.22
2023-10-29T11:23:34.319Z,82.46
2023-10-29T11:26:28.481Z,81.11
2023-10-29T11:28:56.536Z,82.51
2023-10-29T11:31:26.302Z,80.20
2023-10-29T11:33:56.755Z,79.49
2023-10-29T11:36:34.308Z,78.05
2023-10-29T11:39:17.042Z,78.26
2023-10-29T11:41:48.046Z,77.53
2023-10-29T11:44:22.035Z,76.13
2023-10-29T11:47:04.710Z,76.44
2023-10-29T11:49:47.114Z,76.71
2023-10-29T11:52:14.541Z,76.04
2023-10-29T11:54:41.912Z,75.28
2023-10-29T11:57:09.994Z,75.28
2023-10-29T11:59:56.347Z,74.27
2023-10-29T12:02:24.965Z,74.43
2023-10-29T12:04:52.297Z,74.65
2023-10-29T12:07:26.674Z,73.89
2023-10-29T12:10:09.281Z,72.80
2023-10-29T12:12:36.887Z,73.50
2023-10-29T12:15:05.606Z,72.46
2023-10-29T12:17:34.477Z,71.97
2023-10-29T12:20:01.754Z,72.01
2023-10-29T12:22:30.306Z,71.31
2023-10-29T12:25:02.192Z,70.63
2023-10-29T12:27:31.245Z,68.68
2023-10-29T12:29:58.570Z,67.24
2023-10-29T12:32:27.420Z,67.05
2023-10-29T12:34:55.848Z,65.04
2023-10-29T12:37:28.272Z,64.64
2023-10-29T12:39:57.883Z,63.28
2023-10-29T12:42:54.458Z,64.24
2023-10-29T12:45:25.555Z,64.41
2023-10-29T12:48:12.291Z,63.27
2023-10-29T12:50:51.358Z,63.42
2023-10-29T12:53:22.472Z,62.54
2023-10-29T12:55:49.692Z,63.65
2023-10-29T12:58:17.748Z,61.99
2023-10-29T13:00:45.199Z,62.06
2023-10-29T13:03:12.962Z,61.93
2023-10-29T13:05:40.290Z,61.13
2023-10-29T13:08:07.599Z,61.37
2023-10-29T13:10:37.016Z,60.27
2023-10-29T13:13:05.256Z,59.46
2023-10-29T13:15:32.602Z,60.77
2023-10-29T13:18:00.783Z,60.63
2023-10-29T13:20:30.503Z,60.56
2023-10-29T13:22:58.978Z,60.14
2023-10-29T13:25:26.242Z,60.35
2023-10-29T13:27:53.516Z,59.74
2023-10-29T13:30:20.793Z,59.76
2023-10-29T13:32:48.445Z,59.47
2023-10-29T13:35:17.710Z,61.08
2023-10-29T13:37:45.430Z,61.51
2023-10-29T13:40:12.938Z,59.85
2023-10-29T13:42:40.429Z,60.74
2023-10-29T13:45:07.915Z,60.26
2023-10-29T13:47:35.771Z,61.30
2023-10-29T13:50:03.329Z,61.33
2023-10-29T13:52:30.566Z,63.26
2023-10-29T13:54:58.214Z,64.22
2023-10-29T13:57:25.649Z,64.27
2023-10-29T13:59:53.017Z,65.13
2023-10-29T14:02:20.491Z,65.51
2023-10-29T14:04:47.965Z,65.75
2023-10-29T14:07:15.791Z,65.44
2023-10-29T14:09:43.344Z,65.24
2023-10-29T14:12:12.858Z,65.02
2023-10-29T14:14:40.314Z,64.80
2023-10-29T14:17:08.009Z,65.11
2023-10-29T14:19:36.509Z,64.17
2023-10-29T14:22:03.964Z,64.59
2023-10-29T14:24:31.354Z,65.12
2023-10-29T14:26:59.896Z,65.25
2023-10-29T14:29:27.439Z,63.73
2023-10-29T14:31:55.307Z,64.08
2023-10-29T14:34:22.708Z,64.34
2023-10-29T14:36:50.150Z,63.47
2023-10-29T14:39:17.688Z,64.67
2023-10-29T14:41:47.891Z,66.43
2023-10-29T14:44:15.996Z,66.82
2023-10-29T14:46:43.557Z,67.48
2023-10-29T14:49:10.938Z,67.00
2023-10-29T14:51:39.308Z,68.10
2023-10-29T14:54:07.112Z,69.48
2023-10-29T14:56:34.536Z,67.53
2023-10-29T14:59:02.022Z,66.52
2023-10-29T15:01:30.915Z,65.92
2023-10-29T15:03:58.464Z,64.77
2023-10-29T15:06:25.846Z,64.60
2023-10-29T15:08:53.229Z,64.58
2023-10-29T15:11:33.955Z,64.60
2023-10-29T15:14:06.186Z,64.06
2023-10-29T15:16:36.653Z,64.52
2023-10-29T15:19:06.508Z,64.38
2023-10-29T15:21:34.398Z,63.89
2023-10-29T15:24:01.793Z,64.16
2023-10-29T15:26:29.078Z,63.74
2023-10-29T15:28:56.344Z,63.76
2023-10-29T15:31:23.688Z,64.16
2023-10-29T15:33:50.955Z,64.34
2023-10-29T15:36:19.074Z,64.75
2023-10-29T15:38:46.615Z,64.48
2023-10-29T15:41:14.167Z,65.34
2023-10-29T15:43:41.548Z,65.51
2023-10-29T15:46:10.218Z,65.89
2023-10-29T15:48:38.698Z,65.85
2023-10-29T15:51:09.036Z,67.22
2023-10-29T15:53:37.151Z,66.86
2023-10-29T15:56:12.022Z,67.17
2023-10-29T15:58:43.545Z,68.00
2023-10-29T16:01:18.642Z,69.67
2023-10-29T16:03:48.993Z,67.19
2023-10-29T16:06:16.901Z,67.25
2023-10-29T16:08:44.089Z,67.07
2023-10-29T16:11:24.199Z,66.61
2023-10-29T16:13:51.739Z,66.15
2023-10-29T16:16:19.457Z,66.83
2023-10-29T16:18:46.671Z,67.18
2023-10-29T16:21:13.941Z,67.73
2023-10-29T16:23:41.817Z,67.79
2023-10-29T16:26:09.225Z,67.81
2023-10-29T16:28:36.670Z,67.37
2023-10-29T16:31:06.085Z,67.63
2023-10-29T16:33:33.384Z,66.87
2023-10-29T16:36:02.443Z,66.76
2023-10-29T16:38:30.506Z,66.25
2023-10-29T16:41:05.824Z,66.22
2023-10-29T16:43:33.261Z,65.98
2023-10-29T16:46:01.393Z,65.59
2023-10-29T16:48:29.269Z,66.01
2023-10-29T16:51:03.397Z,66.35
2023-10-29T16:53:31.469Z,66.20
2023-10-29T16:56:09.408Z,66.28
2023-10-29T16:58:36.992Z,65.77
2023-10-29T17:01:04.805Z,66.24
2023-10-29T17:03:32.280Z,66.29
2023-10-29T17:05:59.634Z,65.29
2023-10-29T17:08:26.876Z,65.60
2023-10-29T17:10:58.217Z,65.49
2023-10-29T17:13:28.167Z,65.24
2023-10-29T17:16:05.391Z,64.74
2023-10-29T17:18:33.674Z,64.91
2023-10-29T17:21:02.568Z,65.16
2023-10-29T17:23:30.177Z,64.60
2023-10-29T17:25:57.841Z,64.27
2023-10-29T17:28:25.224Z,64.85
2023-10-29T17:30:52.537Z,64.69
2023-10-29T17:33:20.656Z,65.29
2023-10-29T17:35:48.313Z,65.69
2023-10-29T17:38:15.785Z,65.92
2023-10-29T17:40:43.826Z,66.10
2023-10-29T17:43:12.260Z,66.06
2023-10-29T17:45:39.678Z,66.31
2023-10-29T17:48:07.044Z,66.74
2023-10-29T17:50:34.329Z,67.79
2023-10-29T17:53:01.982Z,67.86
2023-10-29T17:55:29.940Z,68.02
2023-10-29T18:15:00.362Z,69.97
2023-10-29T18:17:27.671Z,70.63
2023-10-29T18:19:54.854Z,71.08
2023-10-29T18:22:22.806Z,71.64
2023-10-29T18:24:50.316Z,71.91
2023-10-29T18:27:17.679Z,72.01
2023-10-29T18:29:45.020Z,72.30
2023-10-29T18:32:12.162Z,72.71
2023-10-29T18:34:39.510Z,72.48
2023-10-29T18:37:06.780Z,73.92
2023-10-29T18:39:34.036Z,74.09
2023-10-29T18:42:01.587Z,74.68
2023-10-29T18:44:31.510Z,76.35
2023-10-29T18:47:00.926Z,76.44
2023-10-29T18:49:28.942Z,77.95
2023-10-29T18:51:57.075Z,79.10
2023-10-29T18:54:24.918Z,78.75
2023-10-29T18:56:53.475Z,78.66
2023-10-29T18:59:22.537Z,79.24
2023-10-29T19:01:49.841Z,81.10
2023-10-29T19:04:17.268Z,82.42
2023-10-29T19:06:44.568Z,82.98
2023-10-29T19:09:12.281Z,82.59
2023-10-29T19:11:39.641Z,82.57
2023-10-29T19:14:06.797Z,82.25
2023-10-29T19:16:34.644Z,82.75
2023-10-29T19:19:05.083Z,82.61
2023-10-29T19:21:32.329Z,83.40
2023-10-29T19:24:00.031Z,83.93
2023-10-29T19:26:27.251Z,84.64
2023-10-29T19:28:54.735Z,85.46
2023-10-29T19:31:26.815Z,85.75
2023-10-29T19:33:55.577Z,86.11
2023-10-29T19:36:23.198Z,86.10
2023-10-29T19:38:50.456Z,85.96
2023-10-29T19:41:17.810Z,85.39
2023-10-29T19:43:45.312Z,85.86
2023-10-29T19:46:13.031Z,86.13
2023-10-29T19:48:40.402Z,85.97
2023-10-29T19:51:08.903Z,85.81
2023-10-29T19:53:37.260Z,85.95
2023-10-29T19:56:08.052Z,86.07
2023-10-29T19:58:35.696Z,86.16
2023-10-29T20:01:05.418Z,85.44
2023-10-29T20:03:33.500Z,85.25
2023-10-29T20:06:08.487Z,85.22
2023-10-29T20:08:36.820Z,84.63
2023-10-29T20:11:13.058Z,84.94
2023-10-29T20:13:42.564Z,85.70
2023-10-29T20:16:10.345Z,85.76
2023-10-29T20:18:38.089Z,85.74
2023-10-29T20:21:09.964Z,85.86
2023-10-29T20:23:37.623Z,85.55
2023-10-29T20:26:16.233Z,85.71
2023-10-29T20:28:43.571Z,86.37
2023-10-29T20:31:11.062Z,85.95
2023-10-29T20:33:39.197Z,86.33
2023-10-29T20:36:06.716Z,86.29
2023-10-29T20:38:36.017Z,86.61
2023-10-29T20:41:09.819Z,86.45
2023-10-29T20:43:38.000Z,86.45
2023-10-29T20:46:05.410Z,87.03
2023-10-29T20:48:33.697Z,87.05
2023-10-29T20:51:10.486Z,88.42
2023-10-29T20:53:37.787Z,87.83
2023-10-29T20:56:05.745Z,87.61
2023-10-29T20:58:33.097Z,86.96
2023-10-29T21:01:03.119Z,87.15
2023-10-29T21:03:30.395Z,87.25
2023-10-29T21:05:59.195Z,88.75
2023-10-29T21:08:26.810Z,88.87
2023-10-29T21:11:09.786Z,88.54
2023-10-29T21:13:37.476Z,89.55
2023-10-29T21:16:08.558Z,89.15
2023-10-29T21:18:36.493Z,88.42
2023-10-29T21:21:07.487Z,88.44
2023-10-29T21:23:35.184Z,88.11
2023-10-29T21:26:02.429Z,88.34
2023-10-29T21:28:29.829Z,89.05
2023-10-29T21:30:57.218Z,89.08
2023-10-29T21:33:24.466Z,89.57
2023-10-29T21:35:52.088Z,90.11
2023-10-29T21:38:19.796Z,90.52
2023-10-29T21:40:47.022Z,90.34
2023-10-29T21:43:14.256Z,91.55
2023-10-29T21:45:41.926Z,91.66
2023-10-29T21:48:09.918Z,91.66
2023-10-29T21:50:40.204Z,92.10
2023-10-29T21:53:08.657Z,92.41
2023-10-29T21:55:38.855Z,91.78
2023-10-29T21:58:09.837Z,91.72
2023-10-29T22:00:37.476Z,91.28
2023-10-29T22:03:05.752Z,92.21
2023-10-29T22:05:33.649Z,92.07
2023-10-29T22:08:08.233Z,92.08
2023-10-29T22:10:35.420Z,92.37
2023-10-29T22:13:02.646Z,92.25
2023-10-29T22:15:29.920Z,92.55
2023-10-29T22:17:57.295Z,92.84
2023-10-29T22:20:25.233Z,93.11
2023-10-29T22:22:53.843Z,92.31
2023-10-29T22:25:21.002Z,92.54
2023-10-29T22:27:48.227Z,93.56
2023-10-29T22:30:15.535Z,93.16
2023-10-29T22:32:42.790Z,93.09
2023-10-29T22:35:10.068Z,93.42
2023-10-29T22:37:37.358Z,93.94
2023-10-29T22:40:07.273Z,93.51
2023-10-29T22:42:35.218Z,93.54
2023-10-29T22:45:22.526Z,93.73
2023-10-29T22:47:58.902Z,93.49
2023-10-29T22:50:26.189Z,94.05
2023-10-29T22:52:56.387Z,94.00
2023-10-29T22:55:23.451Z,93.83
2023-10-29T22:57:53.963Z,94.52
2023-10-29T23:00:26.158Z,94.29
2023-10-29T23:02:54.542Z,94.19
2023-10-29T23:05:39.835Z,95.44
2023-10-29T23:08:07.075Z,96.04
2023-10-29T23:10:35.269Z,96.23
2023-10-29T23:13:08.267Z,95.56
2023-10-29T23:15:38.594Z,94.74
2023-10-29T23:18:06.270Z,93.37
2023-10-29T23:20:58.257Z,93.38
2023-10-29T23:23:26.249Z,93.46
2023-10-29T23:25:53.542Z,93.76
2023-10-29T23:28:34.226Z,93.13
2023-10-29T23:31:04.486Z,92.35
2023-10-29T23:33:31.989Z,91.99
2023-10-29T23:35:59.237Z,90.99
2023-10-29T23:38:26.484Z,90.48
2023-10-29T23:40:57.829Z,90.42
2023-10-29T23:43:27.068Z,91.00
2023-10-29T23:45:54.315Z,91.26
2023-10-29T23:48:21.782Z,91.61
2023-10-29T23:50:49.073Z,92.13
2023-10-29T23:53:16.514Z,92.72
2023-10-29T23:55:43.813Z,92.31
2023-10-29T23:58:11.025Z,92.02
